createdAt,value
2019-03-21T00:01:38.513Z,11.43
2019-03-21T00:04:13.130Z,11.73
2019-03-21T00:06:44.652Z,13.60
2019-03-21T00:09:17.797Z,19.40
2019-03-21T00:12:09.201Z,14.40
2019-03-21T00:15:03.465Z,12.88
2019-03-21T00:17:40.921Z,14.55
2019-03-21T00:20:14.661Z,16.27
2019-03-21T00:22:47.122Z,13.53
2019-03-21T00:25:21.009Z,13.55
2019-03-21T00:27:52.436Z,12.40
2019-03-21T00:30:24.520Z,12.30
2019-03-21T00:32:56.093Z,12.35
2019-03-21T00:35:27.519Z,11.70
2019-03-21T00:37:58.952Z,13.05
2019-03-21T00:40:33.063Z,15.05
2019-03-21T00:43:05.810Z,15.20
2019-03-21T00:45:37.197Z,15.48
2019-03-21T00:48:10.945Z,15.30
2019-03-21T00:50:42.635Z,14.58
2019-03-21T00:53:14.017Z,14.53
2019-03-21T00:55:46.445Z,12.00
2019-03-21T00:58:17.820Z,13.25
2019-03-21T01:00:51.385Z,13.10
2019-03-21T01:03:22.818Z,15.32
2019-03-21T01:05:55.304Z,13.62
2019-03-21T01:08:26.742Z,14.15
2019-03-21T01:10:58.200Z,17.07
2019-03-21T01:13:32.833Z,14.33
2019-03-21T01:16:04.372Z,16.25
2019-03-21T01:18:36.349Z,11.48
2019-03-21T01:21:07.879Z,17.98
2019-03-21T01:23:39.302Z,19.67
2019-03-21T01:26:10.822Z,15.68
2019-03-21T01:28:42.187Z,17.35
2019-03-21T01:31:14.720Z,16.62
2019-03-21T01:33:46.145Z,15.98
2019-03-21T01:36:18.439Z,13.38
2019-03-21T01:38:49.836Z,17.62
2019-03-21T01:41:23.445Z,15.88
2019-03-21T01:43:56.590Z,15.38
2019-03-21T01:46:53.197Z,11.12
2019-03-21T01:49:27.374Z,14.73
2019-03-21T01:51:58.992Z,12.37
2019-03-21T01:54:30.860Z,12.80
2019-03-21T01:57:03.952Z,14.35
2019-03-21T01:59:40.265Z,18.32
2019-03-21T02:02:11.717Z,12.60
2019-03-21T02:04:43.156Z,14.95
2019-03-21T02:07:15.247Z,15.25
2019-03-21T02:09:46.672Z,14.13
2019-03-21T02:12:18.111Z,19.57
2019-03-21T02:14:52.446Z,13.68
2019-03-21T02:17:22.736Z,12.53
2019-03-21T02:20:00.983Z,12.53
2019-03-21T02:22:32.433Z,11.43
2019-03-21T02:25:03.855Z,15.08
2019-03-21T02:27:35.317Z,12.73
2019-03-21T02:30:09.618Z,15.48
2019-03-21T02:32:41.164Z,12.43
2019-03-21T02:35:12.591Z,14.47
2019-03-21T02:37:44.042Z,13.48
2019-03-21T02:40:17.505Z,14.78
2019-03-21T02:42:49.387Z,12.15
2019-03-21T02:45:20.763Z,15.20
2019-03-21T02:47:53.136Z,14.80
2019-03-21T02:50:27.313Z,20.23
2019-03-21T02:52:58.701Z,16.48
2019-03-21T02:55:30.134Z,17.73
2019-03-21T02:58:01.744Z,19.40
2019-03-21T03:00:34.758Z,19.77
2019-03-21T03:03:06.525Z,18.00
2019-03-21T03:05:38.112Z,14.98
2019-03-21T03:08:09.507Z,18.80
2019-03-21T03:10:43.658Z,15.95
2019-03-21T03:13:15.049Z,15.88
2019-03-21T03:15:46.441Z,14.78
2019-03-21T03:18:17.834Z,14.20
2019-03-21T03:20:49.249Z,15.08
2019-03-21T03:23:20.823Z,18.55
2019-03-21T03:25:52.182Z,12.85
2019-03-21T03:28:25.204Z,16.12
2019-03-21T03:30:57.271Z,16.20
2019-03-21T03:33:29.320Z,17.67
2019-03-21T03:36:01.974Z,13.65
2019-03-21T03:38:33.474Z,16.17
2019-03-21T03:41:05.083Z,17.10
2019-03-21T03:43:36.452Z,24.10
2019-03-21T03:46:07.932Z,18.35
2019-03-21T03:48:39.353Z,17.52
2019-03-21T03:51:10.789Z,17.32
2019-03-21T03:53:42.731Z,17.77
2019-03-21T03:56:14.295Z,15.08
2019-03-21T03:58:46.995Z,17.80
2019-03-21T04:01:18.453Z,18.32
2019-03-21T04:03:49.953Z,20.20
2019-03-21T04:06:21.611Z,16.48
2019-03-21T04:08:53.132Z,15.72
2019-03-21T04:11:24.771Z,16.73
2019-03-21T04:13:56.139Z,15.93
2019-03-21T04:16:27.615Z,17.60
2019-03-21T04:19:00.134Z,15.93
2019-03-21T04:21:31.559Z,13.70
2019-03-21T04:24:02.966Z,14.28
2019-03-21T04:26:34.426Z,13.62
2019-03-21T04:29:06.809Z,16.62
2019-03-21T04:31:38.204Z,11.85
2019-03-21T04:34:10.299Z,15.75
2019-03-21T04:36:41.829Z,12.98
2019-03-21T04:39:13.280Z,15.45
2019-03-21T04:41:45.254Z,14.15
2019-03-21T04:44:16.915Z,14.87
2019-03-21T04:46:49.307Z,16.50
2019-03-21T04:49:34.318Z,14.15
2019-03-21T04:52:05.784Z,16.77
2019-03-21T04:54:37.257Z,18.10
2019-03-21T04:57:08.667Z,14.05
2019-03-21T04:59:40.087Z,13.13
2019-03-21T05:02:11.433Z,14.53
2019-03-21T05:04:42.821Z,16.80
2019-03-21T05:07:14.194Z,16.50
2019-03-21T05:09:45.592Z,13.98
2019-03-21T05:12:16.994Z,18.05
2019-03-21T05:14:48.371Z,16.50
2019-03-21T05:17:20.762Z,12.82
2019-03-21T05:19:52.263Z,12.53
2019-03-21T05:22:23.645Z,14.47
2019-03-21T05:24:55.008Z,16.77
2019-03-21T05:27:26.398Z,13.93
2019-03-21T05:29:57.956Z,13.70
2019-03-21T05:32:29.345Z,13.60
2019-03-21T05:35:00.733Z,20.40
2019-03-21T05:37:32.146Z,15.32
2019-03-21T05:40:03.694Z,12.85
2019-03-21T05:42:35.201Z,13.15
2019-03-21T05:45:07.467Z,14.33
2019-03-21T05:47:38.937Z,15.88
2019-03-21T05:50:11.628Z,16.52
2019-03-21T05:52:43.144Z,16.02
2019-03-21T05:55:14.706Z,19.32
2019-03-21T05:57:46.320Z,15.75
2019-03-21T06:00:24.368Z,16.52
2019-03-21T06:02:55.740Z,16.62
2019-03-21T06:05:27.292Z,18.90
2019-03-21T06:08:15.644Z,18.32
2019-03-21T06:10:48.116Z,17.02
2019-03-21T06:13:19.520Z,20.25
2019-03-21T06:15:50.873Z,19.48
2019-03-21T06:19:05.153Z,19.65
2019-03-21T06:21:50.394Z,19.05
2019-03-21T06:25:00.902Z,20.27
2019-03-21T06:27:32.580Z,19.23
2019-03-21T06:30:04.276Z,20.50
2019-03-21T06:32:35.657Z,16.20
2019-03-21T06:35:27.440Z,17.52
2019-03-21T06:37:58.801Z,15.90
2019-03-21T06:40:30.286Z,13.68
2019-03-21T06:43:01.667Z,17.45
2019-03-21T06:45:33.097Z,15.13
2019-03-21T06:48:04.588Z,14.40
2019-03-21T06:50:35.944Z,16.20
2019-03-21T06:53:08.409Z,15.83
2019-03-21T06:55:39.840Z,13.43
2019-03-21T06:58:11.211Z,14.23
2019-03-21T07:00:42.666Z,14.87
2019-03-21T07:03:16.280Z,17.25
2019-03-21T07:05:47.062Z,14.20
2019-03-21T07:08:18.410Z,16.05
2019-03-21T07:10:49.791Z,12.98
2019-03-21T07:13:21.160Z,17.12
2019-03-21T07:15:52.634Z,14.98
2019-03-21T07:18:29.616Z,13.50
2019-03-21T07:21:02.625Z,13.00
2019-03-21T07:23:35.327Z,13.13
2019-03-21T07:26:08.922Z,17.10
2019-03-21T07:28:41.470Z,13.32
2019-03-21T07:31:14.105Z,10.53
2019-03-21T07:33:45.552Z,16.23
2019-03-21T07:36:16.954Z,12.93
2019-03-21T07:38:48.377Z,12.95
2019-03-21T07:41:19.792Z,11.95
2019-03-21T07:43:51.193Z,15.75
2019-03-21T07:46:22.702Z,10.75
2019-03-21T07:48:54.076Z,14.15
2019-03-21T07:51:25.635Z,14.43
2019-03-21T07:53:56.999Z,14.05
2019-03-21T07:56:28.380Z,15.03
2019-03-21T07:58:59.780Z,13.55
2019-03-21T08:01:31.282Z,17.15
2019-03-21T08:04:03.202Z,16.85
2019-03-21T08:06:34.948Z,17.45
2019-03-21T08:09:08.204Z,20.00
2019-03-21T08:11:39.616Z,22.00
2019-03-21T08:14:10.996Z,21.42
2019-03-21T08:16:42.413Z,22.73
2019-03-21T08:19:14.992Z,23.38
2019-03-21T08:21:46.391Z,24.35
2019-03-21T08:24:17.856Z,26.52
2019-03-21T08:26:49.268Z,28.00
2019-03-21T08:29:20.643Z,28.52
2019-03-21T08:31:52.077Z,25.37
2019-03-21T08:34:23.477Z,28.80
2019-03-21T08:36:54.897Z,27.17
2019-03-21T08:39:27.283Z,25.55
2019-03-21T08:41:59.019Z,21.60
2019-03-21T08:44:30.427Z,19.95
2019-03-21T08:47:01.814Z,20.95
2019-03-21T08:49:33.167Z,21.05
2019-03-21T08:52:04.748Z,21.77
2019-03-21T08:54:37.173Z,20.65
2019-03-21T08:57:08.541Z,23.10
2019-03-21T08:59:39.909Z,24.30
2019-03-21T09:02:11.332Z,19.48
2019-03-21T09:04:42.708Z,19.17
2019-03-21T09:07:14.089Z,16.27
2019-03-21T09:09:45.460Z,16.87
2019-03-21T09:12:16.848Z,16.32
2019-03-21T09:14:48.254Z,18.75
2019-03-21T09:17:19.644Z,17.62
2019-03-21T09:19:51.032Z,17.95
2019-03-21T09:22:22.448Z,21.02
2019-03-21T09:24:53.841Z,14.60
2019-03-21T09:27:25.242Z,18.52
2019-03-21T09:29:56.712Z,17.60
2019-03-21T09:32:28.077Z,16.87
2019-03-21T09:34:59.437Z,14.38
2019-03-21T09:37:30.832Z,11.97
2019-03-21T09:40:02.211Z,18.85
2019-03-21T09:42:33.584Z,16.42
2019-03-21T09:45:05.724Z,14.60
2019-03-21T09:47:37.139Z,13.38
2019-03-21T09:50:09.063Z,15.25
2019-03-21T09:52:40.445Z,14.28
2019-03-21T09:55:12.021Z,14.13
2019-03-21T09:57:43.418Z,11.90
2019-03-21T10:00:18.594Z,13.43
2019-03-21T10:02:49.981Z,14.55
2019-03-21T10:05:21.336Z,15.35
2019-03-21T10:07:52.756Z,12.65
2019-03-21T10:10:29.384Z,13.80
2019-03-21T10:13:00.929Z,14.40
2019-03-21T10:15:32.315Z,12.00
2019-03-21T10:18:05.118Z,16.12
2019-03-21T10:20:36.528Z,10.68
2019-03-21T10:23:08.024Z,14.90
2019-03-21T10:25:39.522Z,12.60
2019-03-21T10:28:10.889Z,14.90
2019-03-21T10:30:43.234Z,12.58
2019-03-21T10:33:15.558Z,12.30
2019-03-21T10:35:47.029Z,13.50
2019-03-21T10:38:18.438Z,12.93
2019-03-21T10:40:50.852Z,14.30
2019-03-21T10:43:22.304Z,14.00
2019-03-21T10:45:53.761Z,15.25
2019-03-21T10:48:25.216Z,12.80
2019-03-21T10:50:56.657Z,14.23
2019-03-21T10:53:28.063Z,16.10
2019-03-21T10:55:59.447Z,16.67
2019-03-21T10:58:30.848Z,13.60
2019-03-21T11:01:02.375Z,15.00
2019-03-21T11:03:33.777Z,13.75
2019-03-21T11:06:05.214Z,12.68
2019-03-21T11:08:36.660Z,13.98
2019-03-21T11:11:08.132Z,12.28
2019-03-21T11:13:39.519Z,13.15
2019-03-21T11:16:11.248Z,14.70
2019-03-21T11:18:42.639Z,12.53
2019-03-21T11:21:14.044Z,14.68
2019-03-21T11:23:45.450Z,12.18
2019-03-21T11:26:16.866Z,17.10
2019-03-21T11:28:48.298Z,17.37
2019-03-21T11:31:19.734Z,15.40
2019-03-21T11:33:51.145Z,15.98
2019-03-21T11:36:22.545Z,16.05
2019-03-21T11:38:53.967Z,11.95
2019-03-21T11:41:25.341Z,15.50
2019-03-21T11:43:56.766Z,14.63
2019-03-21T11:46:28.191Z,15.35
2019-03-21T11:48:59.641Z,12.88
2019-03-21T11:51:31.049Z,17.42
2019-03-21T11:54:02.457Z,19.20
2019-03-21T11:56:33.857Z,15.23
2019-03-21T11:59:05.356Z,19.82
2019-03-21T12:01:36.849Z,16.42
2019-03-21T12:04:08.275Z,19.73
2019-03-21T12:06:39.705Z,18.00
2019-03-21T12:09:11.229Z,17.15
2019-03-21T12:11:42.650Z,25.02
2019-03-21T12:14:14.098Z,19.27
2019-03-21T12:16:45.494Z,14.45
2019-03-21T12:19:17.958Z,14.50
2019-03-21T12:21:49.325Z,15.75
2019-03-21T12:24:20.724Z,18.42
2019-03-21T12:26:53.226Z,18.82
2019-03-21T12:29:24.646Z,24.63
2019-03-21T12:31:56.026Z,22.85
2019-03-21T12:34:27.425Z,16.82
2019-03-21T12:37:02.552Z,24.87
2019-03-21T12:39:33.953Z,22.98
2019-03-21T12:42:05.402Z,20.82
2019-03-21T12:44:36.799Z,18.65
2019-03-21T12:47:08.213Z,22.37
2019-03-21T12:49:39.656Z,19.67
2019-03-21T12:52:11.063Z,24.50
2019-03-21T12:54:42.484Z,22.52
2019-03-21T12:57:13.864Z,25.37
2019-03-21T12:59:45.316Z,25.80
2019-03-21T13:02:16.811Z,27.35
2019-03-21T13:04:48.276Z,19.70
2019-03-21T13:07:19.947Z,24.70
2019-03-21T13:09:51.686Z,26.20
2019-03-21T13:12:23.080Z,25.52
2019-03-21T13:14:55.493Z,21.10
2019-03-21T13:17:27.001Z,19.90
2019-03-21T13:19:58.625Z,27.58
2019-03-21T13:22:30.057Z,22.67
2019-03-21T13:25:01.461Z,26.73
2019-03-21T13:27:33.106Z,33.18
2019-03-21T13:30:04.777Z,31.02
2019-03-21T13:32:36.163Z,23.85
2019-03-21T13:35:08.085Z,23.25
2019-03-21T13:37:39.523Z,25.15
2019-03-21T13:40:11.282Z,25.95
2019-03-21T13:42:42.676Z,36.63
2019-03-21T13:45:14.328Z,24.37
2019-03-21T13:47:45.734Z,22.70
2019-03-21T13:50:17.225Z,24.82
2019-03-21T13:52:48.798Z,27.90
2019-03-21T13:55:20.194Z,29.40
2019-03-21T13:57:58.870Z,25.52
2019-03-21T14:00:30.308Z,24.23
2019-03-21T14:03:02.247Z,24.67
2019-03-21T14:05:39.231Z,27.20
2019-03-21T14:08:20.928Z,18.80
2019-03-21T14:11:10.349Z,30.30
2019-03-21T14:13:51.960Z,28.12
2019-03-21T14:16:24.088Z,28.60
2019-03-21T14:18:55.524Z,31.42
2019-03-21T14:21:26.917Z,30.48
2019-03-21T14:23:58.464Z,29.60
2019-03-21T14:26:30.877Z,29.48
2019-03-21T14:29:12.210Z,26.48
2019-03-21T14:31:35.286Z,23.70
2019-03-21T14:34:06.944Z,26.87
2019-03-21T14:37:34.345Z,27.95
2019-03-21T14:39:25.291Z,23.40
2019-03-21T14:41:56.986Z,25.45
2019-03-21T14:44:28.686Z,28.77
2019-03-21T14:47:00.188Z,27.00
2019-03-21T14:49:32.685Z,26.10
2019-03-21T14:52:05.484Z,22.85
2019-03-21T14:54:36.941Z,24.07
2019-03-21T14:57:08.496Z,26.75
2019-03-21T14:59:39.923Z,25.82
2019-03-21T15:02:11.296Z,22.05
2019-03-21T15:04:42.673Z,25.65
2019-03-21T15:07:14.078Z,24.10
2019-03-21T15:09:45.464Z,25.08
2019-03-21T15:12:16.940Z,21.35
2019-03-21T15:14:49.981Z,21.27
2019-03-21T15:17:21.561Z,22.30
2019-03-21T15:19:52.958Z,18.52
2019-03-21T15:22:24.394Z,22.05
2019-03-21T15:24:55.805Z,26.48
2019-03-21T15:27:27.212Z,21.57
2019-03-21T15:29:58.598Z,20.30
2019-03-21T15:32:30.017Z,21.05
2019-03-21T15:35:01.558Z,23.77
2019-03-21T15:37:33.113Z,21.00
2019-03-21T15:40:05.345Z,23.15
2019-03-21T15:42:39.089Z,24.52
2019-03-21T15:45:22.242Z,20.00
2019-03-21T15:47:46.073Z,22.58
2019-03-21T15:50:31.587Z,27.35
2019-03-21T15:53:04.375Z,22.98
2019-03-21T15:55:35.800Z,19.82
2019-03-21T15:58:08.363Z,17.98
2019-03-21T16:00:41.194Z,17.37
2019-03-21T16:03:13.365Z,21.07
2019-03-21T16:05:44.876Z,20.32
2019-03-21T16:08:16.357Z,18.77
2019-03-21T16:10:47.748Z,19.65
2019-03-21T16:13:19.138Z,19.62
2019-03-21T16:15:50.550Z,18.65
2019-03-21T16:18:21.932Z,18.42
2019-03-21T16:20:53.443Z,19.98
2019-03-21T16:23:24.820Z,14.93
2019-03-21T16:25:56.270Z,14.33
2019-03-21T16:28:27.646Z,12.75
2019-03-21T16:30:59.021Z,9.45
2019-03-21T16:33:30.539Z,13.35
2019-03-21T16:36:01.985Z,11.48
2019-03-21T16:38:33.398Z,9.20
2019-03-21T16:41:05.363Z,10.10
2019-03-21T16:43:36.757Z,10.68
2019-03-21T16:46:08.230Z,10.60
2019-03-21T16:48:39.597Z,10.78
2019-03-21T16:51:11.016Z,9.58
2019-03-21T16:53:43.856Z,8.10
2019-03-21T16:56:15.476Z,5.33
2019-03-21T16:58:46.962Z,6.42
2019-03-21T17:01:18.664Z,7.10
2019-03-21T17:03:50.384Z,7.50
2019-03-21T17:06:22.022Z,6.60
2019-03-21T17:08:53.506Z,6.50
2019-03-21T17:11:25.307Z,6.72
2019-03-21T17:13:56.766Z,7.95
2019-03-21T17:16:28.249Z,6.53
2019-03-21T17:18:59.698Z,5.50
2019-03-21T17:21:31.116Z,5.87
2019-03-21T17:24:02.542Z,7.58
2019-03-21T17:26:33.937Z,6.55
2019-03-21T17:29:08.058Z,6.97
2019-03-21T17:31:39.841Z,6.20
2019-03-21T17:34:11.312Z,7.22
2019-03-21T17:36:42.680Z,10.38
2019-03-21T17:39:14.085Z,8.65
2019-03-21T17:41:45.489Z,7.30
2019-03-21T17:44:16.973Z,9.60
2019-03-21T17:46:48.379Z,9.75
2019-03-21T17:49:19.769Z,10.43
2019-03-21T17:51:51.298Z,8.40
2019-03-21T17:54:22.718Z,9.85
2019-03-21T17:56:54.174Z,9.15
2019-03-21T17:59:25.542Z,8.58
2019-03-21T18:01:57.048Z,9.70
2019-03-21T18:04:28.611Z,9.00
2019-03-21T18:06:59.984Z,9.63
2019-03-21T18:09:31.381Z,6.83
2019-03-21T18:12:02.769Z,9.30
2019-03-21T18:14:34.220Z,9.40
2019-03-21T18:17:05.698Z,9.40
2019-03-21T18:19:37.065Z,7.08
2019-03-21T18:22:08.717Z,9.85
2019-03-21T18:24:40.124Z,9.95
2019-03-21T18:27:11.587Z,7.08
2019-03-21T18:29:42.999Z,10.60
2019-03-21T18:32:15.471Z,11.38
2019-03-21T18:34:47.797Z,11.25
2019-03-21T18:37:20.005Z,11.55
2019-03-21T18:39:51.416Z,9.70
2019-03-21T18:42:22.833Z,13.28
2019-03-21T18:44:54.234Z,11.18
2019-03-21T18:47:25.883Z,11.35
2019-03-21T18:49:57.285Z,13.00
2019-03-21T18:52:29.137Z,12.93
2019-03-21T18:55:06.453Z,12.95
2019-03-21T18:57:34.567Z,10.18
2019-03-21T19:00:07.108Z,12.37
2019-03-21T19:02:41.057Z,13.88
2019-03-21T19:05:12.641Z,13.32
2019-03-21T19:07:44.006Z,13.25
2019-03-21T19:10:16.130Z,13.32
2019-03-21T19:12:47.638Z,16.45
2019-03-21T19:15:20.620Z,13.75
2019-03-21T19:17:58.981Z,15.80
2019-03-21T19:20:30.772Z,11.18
2019-03-21T19:23:02.540Z,13.78
2019-03-21T19:25:33.939Z,15.78
2019-03-21T19:28:05.583Z,14.70
2019-03-21T19:30:36.999Z,18.75
2019-03-21T19:33:08.424Z,12.95
2019-03-21T19:35:39.956Z,18.05
2019-03-21T19:38:11.373Z,15.35
2019-03-21T19:40:42.812Z,16.67
2019-03-21T19:43:16.455Z,13.30
2019-03-21T19:45:47.877Z,16.48
2019-03-21T19:48:19.296Z,18.45
2019-03-21T19:50:51.102Z,13.15
2019-03-21T19:53:23.552Z,15.80
2019-03-21T19:55:59.494Z,18.37
2019-03-21T19:58:28.721Z,16.90
2019-03-21T20:01:00.272Z,17.17
2019-03-21T20:03:33.298Z,14.98
2019-03-21T20:06:05.214Z,13.50
2019-03-21T20:08:36.736Z,13.22
2019-03-21T20:11:08.693Z,18.17
2019-03-21T20:13:40.088Z,15.20
2019-03-21T20:16:11.568Z,20.75
2019-03-21T20:18:43.454Z,17.42
2019-03-21T20:21:15.307Z,16.85
2019-03-21T20:23:46.984Z,16.93
2019-03-21T20:26:18.582Z,15.00
2019-03-21T20:28:49.980Z,17.42
2019-03-21T20:31:21.608Z,16.37
2019-03-21T20:33:54.206Z,20.15
2019-03-21T20:36:25.646Z,23.02
2019-03-21T20:38:57.565Z,18.95
2019-03-21T20:41:29.062Z,18.20
2019-03-21T20:44:01.517Z,17.60
2019-03-21T20:46:33.128Z,18.45
2019-03-21T20:49:05.061Z,21.87
2019-03-21T20:51:36.462Z,15.90
2019-03-21T20:54:07.910Z,17.25
2019-03-21T20:56:39.388Z,17.82
2019-03-21T20:59:11.358Z,16.23
2019-03-21T21:01:45.322Z,15.60
2019-03-21T21:04:18.680Z,15.25
2019-03-21T21:06:50.242Z,16.90
2019-03-21T21:09:22.529Z,13.55
2019-03-21T21:11:55.356Z,15.38
2019-03-21T21:14:30.530Z,14.03
2019-03-21T21:17:01.956Z,14.98
2019-03-21T21:19:33.368Z,13.48
2019-03-21T21:22:06.058Z,16.50
2019-03-21T21:24:37.548Z,11.75
2019-03-21T21:27:09.049Z,13.43
2019-03-21T21:29:42.946Z,14.83
2019-03-21T21:32:13.618Z,15.78
2019-03-21T21:34:45.510Z,16.40
2019-03-21T21:37:16.967Z,17.00
2019-03-21T21:39:57.885Z,15.08
2019-03-21T21:42:29.353Z,15.40
2019-03-21T21:45:00.825Z,19.52
2019-03-21T21:47:32.273Z,16.70
2019-03-21T21:50:05.686Z,14.35
2019-03-21T21:52:42.189Z,16.77
2019-03-21T21:55:11.849Z,18.23
2019-03-21T21:57:43.321Z,15.60
2019-03-21T22:00:16.217Z,14.55
2019-03-21T22:02:47.620Z,16.50
2019-03-21T22:05:19.756Z,13.78
2019-03-21T22:07:51.156Z,14.90
2019-03-21T22:10:22.603Z,18.27
2019-03-21T22:12:54.024Z,17.25
2019-03-21T22:15:25.440Z,17.57
2019-03-21T22:17:56.912Z,15.40
2019-03-21T22:20:28.306Z,12.37
2019-03-21T22:23:00.859Z,11.25
2019-03-21T22:25:43.644Z,15.45
2019-03-21T22:28:15.134Z,12.15
2019-03-21T22:30:46.645Z,12.73
2019-03-21T22:33:18.173Z,14.15
2019-03-21T22:35:49.630Z,13.35
2019-03-21T22:38:21.083Z,14.98
2019-03-21T22:40:52.484Z,15.20
2019-03-21T22:43:23.988Z,13.18
2019-03-21T22:45:55.416Z,12.88
2019-03-21T22:48:26.836Z,15.95
2019-03-21T22:50:58.259Z,11.80
2019-03-21T22:53:30.260Z,12.80
2019-03-21T22:56:01.801Z,13.45
2019-03-21T22:58:36.482Z,13.43
2019-03-21T23:01:08.676Z,13.93
2019-03-21T23:03:40.105Z,11.57
2019-03-21T23:06:14.239Z,11.68
2019-03-21T23:08:49.302Z,10.80
2019-03-21T23:11:24.698Z,9.53
2019-03-21T23:14:03.521Z,9.93
2019-03-21T23:16:38.638Z,10.63
2019-03-21T23:19:10.076Z,11.43
2019-03-21T23:21:41.558Z,9.48
2019-03-21T23:24:12.992Z,8.93
2019-03-21T23:26:52.932Z,13.13
2019-03-21T23:29:22.636Z,6.85
2019-03-21T23:31:54.048Z,7.20
2019-03-21T23:34:25.455Z,6.62
2019-03-21T23:36:57.116Z,7.50
2019-03-21T23:39:28.586Z,7.28
2019-03-21T23:42:00.028Z,6.03
2019-03-21T23:44:31.453Z,8.60
2019-03-21T23:47:04.627Z,9.13
2019-03-21T23:49:36.768Z,8.68
2019-03-21T23:52:08.258Z,5.05
2019-03-21T23:54:40.158Z,5.37
2019-03-21T23:57:13.388Z,8.05
2019-03-21T23:59:53.549Z,6.95
